Tipton, Oklahoma
Current Conditions -  °F | °C
As of 2:58 PM on Friday 19 Dec 2014 (Local Time) from KLTS Reporting Station
Overcast Overcast  
Wind Chill: 41°   Ceiling: 1400
Heat Index: 45°   Visibility: 10mi
Dew Point: 40°   Wind: 6mph
Humidity: 84%   Direction: 50°NE
Pressure: 30.18"   Gusts: NA
Location:  34.5°N, 99.14°W
Report Text: KLTS 192058Z 05005KT 10SM BKN014 OVC019 07/04 A3018 RMK AO2A SLP225 T00700044 55014 $
Loading
Personal Weather Stations






























Interactive Weather Map New forecast layout! Learn more

10-Day Weather Forecast

Advertisements
Track Severe Weather on mobile